Time,TemperatureF,DewpointF,PressureIn,WindDirection,WindDirectionDegrees,WindSpeedMPH,WindSpeedGustMPH,Humidity,HourlyPrecipIn,Conditions,Clouds,dailyrainin,SoftwareType,DateUTC
2013-01-27 00:00:00,34.9,9.4,30.49,South,186,0.0,0.0,34,0.00,,,0.00,WeatherCatV1.02B3,2013-01-27 05:00:00,
2013-01-27 00:05:00,35.0,10.1,30.49,South,180,0.0,0.0,35,0.00,,,0.00,WeatherCatV1.02B3,2013-01-27 05:05:00,
2013-01-27 00:10:00,34.9,9.4,30.49,East,98,0.0,0.0,34,0.00,,,0.00,WeatherCatV1.02B3,2013-01-27 05:10:00,
2013-01-27 00:15:00,35.0,10.1,30.49,ESE,103,0.0,0.0,35,0.00,,,0.00,WeatherCatV1.02B3,2013-01-27 05:15:00,
2013-01-27 00:16:00,35.0,10.1,30.49,ESE,103,0.0,1.0,35,0.00,,,0.00,WeatherCatV1.02B3,2013-01-27 05:16:00,
2013-01-27 00:21:00,35.2,8.3,30.49,South,184,1.0,2.0,32,0.00,,,0.00,WeatherCatV1.02B3,2013-01-27 05:21:00,
2013-01-27 00:26:00,35.6,8.7,30.49,South,175,0.0,1.0,32,0.00,,,0.00,WeatherCatV1.02B3,2013-01-27 05:26:00,
2013-01-27 00:31:00,35.8,10.2,30.49,South,175,0.0,0.0,34,0.00,,,0.00,WeatherCatV1.02B3,2013-01-27 05:31:00,
2013-01-27 00:36:00,35.6,10.0,30.49,SSW,206,0.0,2.0,34,0.00,,,0.00,WeatherCatV1.02B3,2013-01-27 05:36:00,
2013-01-27 00:41:00,35.5,9.9,30.49,SSW,206,0.0,0.0,34,0.00,,,0.00,WeatherCatV1.02B3,2013-01-27 05:41:00,
2013-01-27 00:46:00,35.4,10.5,30.49,SSW,206,0.0,0.0,35,0.00,,,0.00,WeatherCatV1.02B3,2013-01-27 05:46:00,
2013-01-27 00:51:00,35.2,9.7,30.49,ESE,115,0.0,0.0,34,0.00,,,0.00,WeatherCatV1.02B3,2013-01-27 05:51:00,
2013-01-27 00:56:00,35.2,8.3,30.49,ESE,115,0.0,0.0,32,0.00,,,0.00,WeatherCatV1.02B3,2013-01-27 05:56:00,
2013-01-27 01:01:00,35.2,9.0,30.50,ESE,115,0.0,1.0,33,0.00,,,0.00,WeatherCatV1.02B3,2013-01-27 06:01:00,
2013-01-27 01:06:00,34.8,9.3,30.49,ESE,115,0.0,0.0,34,0.00,,,0.00,WeatherCatV1.02B3,2013-01-27 06:06:00,
2013-01-27 01:11:00,34.5,8.4,30.49,ESE,115,1.0,2.0,33,0.00,,,0.00,WeatherCatV1.02B3,2013-01-27 06:11:00,
2013-01-27 01:16:00,34.4,8.3,30.49,ESE,115,0.0,2.0,33,0.00,,,0.00,WeatherCatV1.02B3,2013-01-27 06:16:00,
2013-01-27 01:21:00,34.6,8.5,30.50,ESE,115,0.0,1.0,33,0.00,,,0.00,WeatherCatV1.02B3,2013-01-27 06:21:00,
2013-01-27 01:26:00,34.4,8.3,30.50,SSE,167,1.0,1.0,33,0.00,,,0.00,WeatherCatV1.02B3,2013-01-27 06:26:00,
2013-01-27 01:31:00,34.4,7.6,30.50,SSW,197,0.0,3.0,32,0.00,,,0.00,WeatherCatV1.02B3,2013-01-27 06:31:00,
2013-01-27 01:36:00,34.4,9.0,30.50,SSW,196,0.0,1.0,34,0.00,,,0.00,WeatherCatV1.02B3,2013-01-27 06:36:00,
2013-01-27 01:41:00,34.4,6.9,30.50,SSW,196,0.0,0.0,31,0.00,,,0.00,WeatherCatV1.02B3,2013-01-27 06:41:00,
2013-01-27 01:46:00,34.4,10.2,30.50,SSW,196,0.0,0.0,36,0.00,,,0.00,WeatherCatV1.02B3,2013-01-27 06:46:00,
2013-01-27 01:51:00,34.3,11.4,30.50,SSW,195,0.0,0.0,38,0.00,,,0.00,WeatherCatV1.02B3,2013-01-27 06:51:00,
2013-01-27 01:56:00,33.4,10.6,30.51,SSW,196,0.0,0.0,38,0.00,,,0.00,WeatherCatV1.02B3,2013-01-27 06:56:00,
2013-01-27 02:01:00,32.7,9.9,30.51,SSW,196,0.0,0.0,38,0.00,,,0.00,WeatherCatV1.02B3,2013-01-27 07:01:00,
2013-01-27 02:06:00,32.2,9.5,30.51,SSW,196,0.0,0.0,38,0.00,,,0.00,WeatherCatV1.02B3,2013-01-27 07:06:00,
2013-01-27 02:13:00,31.9,8.6,30.51,SSW,196,0.0,0.0,37,0.00,,,0.00,WeatherCatV1.02B3,2013-01-27 07:13:00,
2013-01-27 02:18:00,31.9,8.6,30.51,SSW,195,0.0,1.0,37,0.00,,,0.00,WeatherCatV1.02B3,2013-01-27 07:18:00,
2013-01-27 02:23:00,31.9,7.4,30.51,SSW,196,0.0,0.0,35,0.00,,,0.00,WeatherCatV1.02B3,2013-01-27 07:23:00,
2013-01-27 02:28:00,32.0,8.7,30.52,SSW,196,0.0,0.0,37,0.00,,,0.00,WeatherCatV1.02B3,2013-01-27 07:28:00,
2013-01-27 02:33:00,32.1,8.2,30.52,SSW,195,0.0,0.0,36,0.00,,,0.00,WeatherCatV1.02B3,2013-01-27 07:33:00,
2013-01-27 02:38:00,32.1,8.2,30.52,SSW,196,0.0,0.0,36,0.00,,,0.00,WeatherCatV1.02B3,2013-01-27 07:38:00,
2013-01-27 02:43:00,32.3,9.0,30.52,SSW,196,0.0,0.0,37,0.00,,,0.00,WeatherCatV1.02B3,2013-01-27 07:43:00,
2013-01-27 02:48:00,32.4,8.5,30.52,SSW,196,0.0,1.0,36,0.00,,,0.00,WeatherCatV1.02B3,2013-01-27 07:48:00,
2013-01-27 02:53:00,32.3,7.7,30.52,SSW,196,0.0,0.0,35,0.00,,,0.00,WeatherCatV1.02B3,2013-01-27 07:53:00,
2013-01-27 02:58:00,32.1,7.6,30.52,SSW,196,0.0,1.0,35,0.00,,,0.00,WeatherCatV1.02B3,2013-01-27 07:58:00,
2013-01-27 03:03:00,32.1,6.9,30.52,SSW,196,0.0,0.0,34,0.00,,,0.00,WeatherCatV1.02B3,2013-01-27 08:03:00,
2013-01-27 03:08:00,32.0,6.8,30.52,SSW,195,0.0,0.0,34,0.00,,,0.00,WeatherCatV1.02B3,2013-01-27 08:08:00,
2013-01-27 03:13:00,31.9,7.4,30.52,SSW,196,0.0,0.0,35,0.00,,,0.00,WeatherCatV1.02B3,2013-01-27 08:13:00,
2013-01-27 03:18:00,31.8,7.3,30.52,SSW,195,1.0,2.0,35,0.00,,,0.00,WeatherCatV1.02B3,2013-01-27 08:18:00,
2013-01-27 03:23:00,31.5,7.0,30.52,SSW,195,0.0,1.0,35,0.00,,,0.00,WeatherCatV1.02B3,2013-01-27 08:23:00,
2013-01-27 03:28:00,31.4,7.6,30.52,SSW,196,0.0,0.0,36,0.00,,,0.00,WeatherCatV1.02B3,2013-01-27 08:28:00,
2013-01-27 03:33:00,31.1,8.5,30.52,SSW,196,0.0,0.0,38,0.00,,,0.00,WeatherCatV1.02B3,2013-01-27 08:33:00,
2013-01-27 03:38:00,30.8,8.8,30.52,SSW,195,0.0,2.0,39,0.00,,,0.00,WeatherCatV1.02B3,2013-01-27 08:38:00,
2013-01-27 03:43:00,30.6,8.6,30.52,SSE,161,2.0,3.0,39,0.00,,,0.00,WeatherCatV1.02B3,2013-01-27 08:43:00,
2013-01-27 03:48:00,30.6,11.8,30.52,SSE,167,3.0,4.0,45,0.00,,,0.00,WeatherCatV1.02B3,2013-01-27 08:48:00,
2013-01-27 03:53:00,30.5,13.2,30.51,SSE,167,1.0,2.0,48,0.00,,,0.00,WeatherCatV1.02B3,2013-01-27 08:53:00,
2013-01-27 03:58:00,30.2,13.8,30.51,SSE,167,0.0,2.0,50,0.00,,,0.00,WeatherCatV1.02B3,2013-01-27 08:58:00,
2013-01-27 04:03:00,30.0,14.1,30.51,SSE,167,1.0,2.0,51,0.00,,,0.00,WeatherCatV1.02B3,2013-01-27 09:03:00,
2013-01-27 04:08:00,29.9,14.9,30.51,South,177,1.0,3.0,53,0.00,,,0.00,WeatherCatV1.02B3,2013-01-27 09:08:00,
2013-01-27 04:13:00,30.0,16.6,30.51,South,183,1.0,3.0,57,0.00,,,0.00,WeatherCatV1.02B3,2013-01-27 09:13:00,
2013-01-27 04:18:00,30.2,17.6,30.52,SSE,165,1.0,2.0,59,0.00,,,0.00,WeatherCatV1.02B3,2013-01-27 09:18:00,
2013-01-27 04:23:00,30.3,18.5,30.52,SSE,164,2.0,2.0,61,0.00,,,0.00,WeatherCatV1.02B3,2013-01-27 09:23:00,
2013-01-27 04:28:00,30.3,18.9,30.52,SSE,165,2.0,3.0,62,0.00,,,0.00,WeatherCatV1.02B3,2013-01-27 09:28:00,
2013-01-27 04:33:00,30.1,18.7,30.52,SSE,165,0.0,2.0,62,0.00,,,0.00,WeatherCatV1.02B3,2013-01-27 09:33:00,
2013-01-27 04:38:00,30.0,18.6,30.52,SSE,165,0.0,2.0,62,0.00,,,0.00,WeatherCatV1.02B3,2013-01-27 09:38:00,
2013-01-27 04:43:00,29.8,18.4,30.52,SSE,165,1.0,2.0,62,0.00,,,0.00,WeatherCatV1.02B3,2013-01-27 09:43:00,
2013-01-27 04:48:00,29.6,18.2,30.52,SSE,165,1.0,1.0,62,0.00,,,0.00,WeatherCatV1.02B3,2013-01-27 09:48:00,
2013-01-27 04:53:00,29.3,18.3,30.52,SSE,165,1.0,1.0,63,0.00,,,0.00,WeatherCatV1.02B3,2013-01-27 09:53:00,
2013-01-27 04:58:00,29.0,18.4,30.52,SSE,165,0.0,0.0,64,0.00,,,0.00,WeatherCatV1.02B3,2013-01-27 09:58:00,
2013-01-27 05:03:00,28.8,17.8,30.52,SSE,165,0.0,2.0,63,0.00,,,0.00,WeatherCatV1.02B3,2013-01-27 10:03:00,
2013-01-27 05:08:00,28.8,18.5,30.52,SSW,196,0.0,2.0,65,0.00,,,0.00,WeatherCatV1.02B3,2013-01-27 10:08:00,
2013-01-27 05:13:00,28.8,17.8,30.52,SSW,196,1.0,1.0,63,0.00,,,0.00,WeatherCatV1.02B3,2013-01-27 10:13:00,
2013-01-27 05:18:00,28.7,19.5,30.53,SSW,196,1.0,2.0,68,0.00,,,0.00,WeatherCatV1.02B3,2013-01-27 10:18:00,
2013-01-27 05:23:00,28.3,19.8,30.53,SSW,195,1.0,2.0,70,0.00,,,0.00,WeatherCatV1.02B3,2013-01-27 10:23:00,
2013-01-27 05:28:00,28.1,19.6,30.53,SSW,194,2.0,3.0,70,0.00,,,0.00,WeatherCatV1.02B3,2013-01-27 10:28:00,
2013-01-27 05:33:00,27.9,19.7,30.53,SSW,194,1.0,2.0,71,0.00,,,0.00,WeatherCatV1.02B3,2013-01-27 10:33:00,
2013-01-27 05:38:00,27.9,20.1,30.53,SSW,194,2.0,2.0,72,0.00,,,0.00,WeatherCatV1.02B3,2013-01-27 10:38:00,
2013-01-27 05:43:00,27.8,20.0,30.53,SSW,195,3.0,3.0,72,0.00,,,0.00,WeatherCatV1.02B3,2013-01-27 10:43:00,
2013-01-27 05:48:00,27.8,20.3,30.53,SSW,195,0.0,2.0,73,0.00,,,0.00,WeatherCatV1.02B3,2013-01-27 10:48:00,
2013-01-27 05:53:00,27.9,20.7,30.53,SSW,195,1.0,2.0,74,0.00,,,0.00,WeatherCatV1.02B3,2013-01-27 10:53:00,
2013-01-27 05:58:00,28.0,20.8,30.53,SSW,195,0.0,2.0,74,0.00,,,0.00,WeatherCatV1.02B3,2013-01-27 10:58:00,
2013-01-27 06:03:00,28.1,20.9,30.53,SSW,195,0.0,2.0,74,0.00,,,0.00,WeatherCatV1.02B3,2013-01-27 11:03:00,
2013-01-27 06:08:00,28.1,21.5,30.53,SSW,195,1.0,1.0,76,0.00,,,0.00,WeatherCatV1.02B3,2013-01-27 11:08:00,
2013-01-27 06:13:00,28.1,21.5,30.53,SSW,195,1.0,2.0,76,0.00,,,0.00,WeatherCatV1.02B3,2013-01-27 11:13:00,
2013-01-27 06:18:00,28.1,21.5,30.53,SSW,195,1.0,2.0,76,0.00,,,0.00,WeatherCatV1.02B3,2013-01-27 11:18:00,
2013-01-27 06:23:00,28.0,21.4,30.53,SSW,195,1.0,2.0,76,0.00,,,0.00,WeatherCatV1.02B3,2013-01-27 11:23:00,
2013-01-27 06:28:00,27.9,21.6,30.54,SSW,195,2.0,3.0,77,0.00,,,0.00,WeatherCatV1.02B3,2013-01-27 11:28:00,
2013-01-27 06:33:00,27.9,21.9,30.54,SSW,195,2.0,3.0,78,0.00,,,0.00,WeatherCatV1.02B3,2013-01-27 11:33:00,
2013-01-27 06:38:00,27.9,21.6,30.54,SSW,195,2.0,2.0,77,0.00,,,0.00,WeatherCatV1.02B3,2013-01-27 11:38:00,
2013-01-27 06:43:00,27.8,21.5,30.55,SSW,195,1.0,3.0,77,0.00,,,0.00,WeatherCatV1.02B3,2013-01-27 11:43:00,
2013-01-27 06:48:00,27.7,21.4,30.55,SSW,195,1.0,2.0,77,0.00,,,0.00,WeatherCatV1.02B3,2013-01-27 11:48:00,
2013-01-27 06:53:00,27.6,21.4,30.55,SSW,195,1.0,2.0,77,0.00,,,0.00,WeatherCatV1.02B3,2013-01-27 11:53:00,
2013-01-27 06:58:00,27.4,21.2,30.55,SSW,195,1.0,2.0,77,0.00,,,0.00,WeatherCatV1.02B3,2013-01-27 11:58:00,
2013-01-27 07:03:00,27.1,20.6,30.55,SSW,195,1.0,1.0,76,0.00,,,0.00,WeatherCatV1.02B3,2013-01-27 12:03:00,
2013-01-27 07:08:00,26.8,20.6,30.55,SSW,195,0.0,0.0,77,0.00,,,0.00,WeatherCatV1.02B3,2013-01-27 12:08:00,
2013-01-27 07:13:00,26.6,22.7,30.56,SSW,195,0.0,1.0,85,0.00,,,0.00,WeatherCatV1.02B3,2013-01-27 12:13:00,
2013-01-27 07:18:00,26.4,20.8,30.56,SSW,195,0.0,0.0,79,0.00,,,0.00,WeatherCatV1.02B3,2013-01-27 12:18:00,
2013-01-27 07:23:00,26.3,21.0,30.57,SSW,195,0.0,0.0,80,0.00,,,0.00,WeatherCatV1.02B3,2013-01-27 12:23:00,
2013-01-27 07:28:00,26.2,20.9,30.57,SSW,195,0.0,0.0,80,0.00,,,0.00,WeatherCatV1.02B3,2013-01-27 12:28:00,
2013-01-27 07:33:00,26.2,21.5,30.57,SSW,195,0.0,0.0,82,0.00,,,0.00,WeatherCatV1.02B3,2013-01-27 12:33:00,
2013-01-27 08:01:00,25.4,20.7,30.58,SSW,195,1.0,2.0,82,0.00,,,0.00,WeatherCatV1.02B3,2013-01-27 13:01:00,
2013-01-27 08:06:00,25.2,20.8,30.58,SSW,195,0.0,0.0,83,0.00,,,0.00,WeatherCatV1.02B3,2013-01-27 13:06:00,
2013-01-27 08:11:00,25.0,20.9,30.58,SSW,195,1.0,1.0,84,0.00,,,0.00,WeatherCatV1.02B3,2013-01-27 13:11:00,
2013-01-27 08:16:00,25.2,21.3,30.58,SSW,195,0.0,2.0,85,0.00,,,0.00,WeatherCatV1.02B3,2013-01-27 13:16:00,
2013-01-27 08:21:00,25.3,21.4,30.58,SSW,195,0.0,0.0,85,0.00,,,0.00,WeatherCatV1.02B3,2013-01-27 13:21:00,
2013-01-27 08:26:00,25.3,21.4,30.58,SSW,195,0.0,0.0,85,0.00,,,0.00,WeatherCatV1.02B3,2013-01-27 13:26:00,
2013-01-27 08:31:00,25.3,21.4,30.58,SSW,195,0.0,0.0,85,0.00,,,0.00,WeatherCatV1.02B3,2013-01-27 13:31:00,
2013-01-27 08:36:00,25.4,21.5,30.58,SSW,195,0.0,1.0,85,0.00,,,0.00,WeatherCatV1.02B3,2013-01-27 13:36:00,
2013-01-27 08:41:00,25.3,21.7,30.59,SSW,195,0.0,0.0,86,0.00,,,0.00,WeatherCatV1.02B3,2013-01-27 13:41:00,
2013-01-27 08:46:00,25.2,21.6,30.59,SSW,195,0.0,0.0,86,0.00,,,0.00,WeatherCatV1.02B3,2013-01-27 13:46:00,
2013-01-27 08:51:00,25.1,21.5,30.59,SSW,195,0.0,0.0,86,0.00,,,0.00,WeatherCatV1.02B3,2013-01-27 13:51:00,
2013-01-27 08:56:00,25.1,21.5,30.59,SSW,195,0.0,0.0,86,0.00,,,0.00,WeatherCatV1.02B3,2013-01-27 13:56:00,
2013-01-27 09:01:00,25.0,21.4,30.59,SSW,195,0.0,0.0,86,0.00,,,0.00,WeatherCatV1.02B3,2013-01-27 14:01:00,
2013-01-27 09:06:00,25.0,21.4,30.60,SSW,195,0.0,0.0,86,0.00,,,0.00,WeatherCatV1.02B3,2013-01-27 14:06:00,
2013-01-27 09:11:00,25.0,21.7,30.59,SSW,195,0.0,0.0,87,0.00,,,0.00,WeatherCatV1.02B3,2013-01-27 14:11:00,
2013-01-27 09:16:00,25.0,21.7,30.60,SSW,195,0.0,0.0,87,0.00,,,0.00,WeatherCatV1.02B3,2013-01-27 14:16:00,
2013-01-27 09:21:00,24.9,21.6,30.60,SSW,195,0.0,0.0,87,0.00,,,0.00,WeatherCatV1.02B3,2013-01-27 14:21:00,
2013-01-27 09:26:00,24.9,21.6,30.60,SSW,195,0.0,0.0,87,0.00,,,0.00,WeatherCatV1.02B3,2013-01-27 14:26:00,
2013-01-27 09:31:00,24.8,21.5,30.60,SSW,195,0.0,0.0,87,0.00,,,0.00,WeatherCatV1.02B3,2013-01-27 14:31:00,
2013-01-27 09:36:00,24.8,21.5,30.60,SSW,195,0.0,0.0,87,0.00,,,0.00,WeatherCatV1.02B3,2013-01-27 14:36:00,
2013-01-27 09:41:00,24.8,21.8,30.60,SSW,195,0.0,0.0,88,0.00,,,0.00,WeatherCatV1.02B3,2013-01-27 14:41:00,
2013-01-27 09:46:00,24.8,21.8,30.60,SSW,195,0.0,0.0,88,0.00,,,0.00,WeatherCatV1.02B3,2013-01-27 14:46:00,
2013-01-27 09:51:00,24.8,21.8,30.60,SSW,195,0.0,0.0,88,0.00,,,0.00,WeatherCatV1.02B3,2013-01-27 14:51:00,
2013-01-27 09:56:00,24.9,21.9,30.60,SSW,195,0.0,0.0,88,0.00,,,0.00,WeatherCatV1.02B3,2013-01-27 14:56:00,
2013-01-27 10:01:00,25.0,22.2,30.60,SSW,195,0.0,1.0,89,0.00,,,0.00,WeatherCatV1.02B3,2013-01-27 15:01:00,
2013-01-27 10:06:00,25.1,22.3,30.60,SSW,195,0.0,0.0,89,0.00,,,0.00,WeatherCatV1.02B3,2013-01-27 15:06:00,
2013-01-27 10:11:00,25.3,22.5,30.60,SSW,195,0.0,0.0,89,0.00,,,0.00,WeatherCatV1.02B3,2013-01-27 15:11:00,
2013-01-27 10:16:00,25.6,22.8,30.60,NNW,342,2.0,3.0,89,0.00,,,0.00,WeatherCatV1.02B3,2013-01-27 15:16:00,
2013-01-27 10:21:00,25.8,23.0,30.61,NNW,342,0.0,0.0,89,0.00,,,0.00,WeatherCatV1.02B3,2013-01-27 15:21:00,
2013-01-27 10:26:00,26.0,22.9,30.61,NNW,342,0.0,0.0,88,0.00,,,0.00,WeatherCatV1.02B3,2013-01-27 15:26:00,
2013-01-27 10:31:00,26.3,23.2,30.61,NNW,342,0.0,1.0,88,0.00,,,0.00,WeatherCatV1.02B3,2013-01-27 15:31:00,
2013-01-27 10:36:00,26.6,23.5,30.61,NNW,342,0.0,1.0,88,0.00,,,0.00,WeatherCatV1.02B3,2013-01-27 15:36:00,
2013-01-27 10:41:00,27.0,23.9,30.61,NNW,342,0.0,1.0,88,0.00,,,0.00,WeatherCatV1.02B3,2013-01-27 15:41:00,
2013-01-27 10:46:00,27.4,23.8,30.61,NNW,342,0.0,1.0,86,0.00,,,0.00,WeatherCatV1.02B3,2013-01-27 15:46:00,
2013-01-27 10:51:00,27.5,23.9,30.61,NNW,342,0.0,0.0,86,0.00,,,0.00,WeatherCatV1.02B3,2013-01-27 15:51:00,
2013-01-27 10:56:00,27.8,24.2,30.61,NNW,342,0.0,0.0,86,0.00,,,0.00,WeatherCatV1.02B3,2013-01-27 15:56:00,
2013-01-27 11:01:00,28.2,24.6,30.61,NNW,346,0.0,2.0,86,0.00,,,0.00,WeatherCatV1.02B3,2013-01-27 16:01:00,
2013-01-27 11:06:00,28.5,24.6,30.62,NNW,347,0.0,0.0,85,0.00,,,0.00,WeatherCatV1.02B3,2013-01-27 16:06:00,
2013-01-27 11:11:00,28.8,24.9,30.62,NNW,347,1.0,1.0,85,0.00,,,0.00,WeatherCatV1.02B3,2013-01-27 16:11:00,
2013-01-27 11:16:00,29.1,25.2,30.62,NNW,346,0.0,2.0,85,0.00,,,0.00,WeatherCatV1.02B3,2013-01-27 16:16:00,
2013-01-27 11:21:00,29.3,25.4,30.63,NW,316,1.0,1.0,85,0.00,,,0.00,WeatherCatV1.02B3,2013-01-27 16:21:00,
2013-01-27 11:26:00,29.5,25.3,30.63,NW,316,0.0,1.0,84,0.00,,,0.00,WeatherCatV1.02B3,2013-01-27 16:26:00,
2013-01-27 11:31:00,29.8,25.9,30.63,NW,315,2.0,2.0,85,0.00,,,0.00,WeatherCatV1.02B3,2013-01-27 16:31:00,
2013-01-27 11:36:00,30.1,25.6,30.62,NW,316,3.0,3.0,83,0.00,,,0.00,WeatherCatV1.02B3,2013-01-27 16:36:00,
2013-01-27 11:41:00,30.4,25.9,30.62,SSW,207,0.0,7.0,83,0.00,,,0.00,WeatherCatV1.02B3,2013-01-27 16:41:00,
2013-01-27 11:46:00,30.7,25.9,30.62,NNW,342,2.0,4.0,82,0.00,,,0.00,WeatherCatV1.02B3,2013-01-27 16:46:00,
2013-01-27 11:51:00,30.8,26.0,30.62,NNW,337,1.0,2.0,82,0.00,,,0.00,WeatherCatV1.02B3,2013-01-27 16:51:00,
2013-01-27 11:56:00,31.0,26.2,30.62,East,92,2.0,2.0,82,0.00,,,0.00,WeatherCatV1.02B3,2013-01-27 16:56:00,
2013-01-27 12:01:00,31.3,26.2,30.61,NW,321,0.0,3.0,81,0.00,,,0.00,WeatherCatV1.02B3,2013-01-27 17:01:00,
2013-01-27 12:06:00,31.8,26.6,30.61,NW,304,0.0,1.0,81,0.00,,,0.00,WeatherCatV1.02B3,2013-01-27 17:06:00,
2013-01-27 12:11:00,32.3,26.8,30.61,NW,304,0.0,1.0,80,0.00,,,0.00,WeatherCatV1.02B3,2013-01-27 17:11:00,
2013-01-27 12:16:00,32.3,26.5,30.61,North,9,1.0,3.0,79,0.00,,,0.00,WeatherCatV1.02B3,2013-01-27 17:16:00,
2013-01-27 12:21:00,32.5,26.7,30.60,North,9,0.0,3.0,79,0.00,,,0.00,WeatherCatV1.02B3,2013-01-27 17:21:00,
2013-01-27 12:26:00,32.7,26.9,30.60,North,9,0.0,1.0,79,0.00,,,0.00,WeatherCatV1.02B3,2013-01-27 17:26:00,
2013-01-27 12:31:00,32.9,26.8,30.60,North,9,2.0,2.0,78,0.00,,,0.00,WeatherCatV1.02B3,2013-01-27 17:31:00,
2013-01-27 12:36:00,32.9,26.8,30.60,North,9,0.0,3.0,78,0.00,,,0.00,WeatherCatV1.02B3,2013-01-27 17:36:00,
2013-01-27 12:41:00,33.0,26.9,30.60,North,9,0.0,0.0,78,0.00,,,0.00,WeatherCatV1.02B3,2013-01-27 17:41:00,
2013-01-27 12:46:00,33.1,27.0,30.59,North,9,0.0,1.0,78,0.00,,,0.00,WeatherCatV1.02B3,2013-01-27 17:46:00,
2013-01-27 12:51:00,33.4,27.3,30.59,NNW,331,3.0,3.0,78,0.00,,,0.00,WeatherCatV1.02B3,2013-01-27 17:51:00,
2013-01-27 12:56:00,33.8,27.4,30.59,NNW,348,1.0,4.0,77,0.00,,,0.00,WeatherCatV1.02B3,2013-01-27 17:56:00,
2013-01-27 13:01:00,34.4,27.6,30.59,WNW,291,0.0,0.0,76,0.00,,,0.00,WeatherCatV1.02B3,2013-01-27 18:01:00,
2013-01-27 13:06:00,34.4,27.3,30.59,North,0,0.0,0.0,75,0.00,,,0.00,WeatherCatV1.02B3,2013-01-27 18:06:00,
2013-01-27 13:11:00,34.6,27.8,30.59,North,0,1.0,1.0,76,0.00,,,0.00,WeatherCatV1.02B3,2013-01-27 18:11:00,
2013-01-27 13:16:00,35.0,27.9,30.59,NNW,329,2.0,3.0,75,0.00,,,0.00,WeatherCatV1.02B3,2013-01-27 18:16:00,
2013-01-27 13:21:00,34.9,27.1,30.58,NNW,340,0.0,1.0,73,0.00,,,0.00,WeatherCatV1.02B3,2013-01-27 18:21:00,
2013-01-27 13:26:00,34.5,27.1,30.58,NNW,340,0.0,0.0,74,0.00,,,0.00,WeatherCatV1.02B3,2013-01-27 18:26:00,
2013-01-27 13:31:00,34.4,27.0,30.59,NNW,340,1.0,2.0,74,0.00,,,0.00,WeatherCatV1.02B3,2013-01-27 18:31:00,
2013-01-27 13:36:00,34.3,26.9,30.59,West,260,2.0,3.0,74,0.00,,,0.00,WeatherCatV1.02B3,2013-01-27 18:36:00,
2013-01-27 13:41:00,33.8,26.4,30.58,WSW,250,0.0,1.0,74,0.00,,,0.00,WeatherCatV1.02B3,2013-01-27 18:41:00,
2013-01-27 13:46:00,33.8,26.7,30.58,WNW,295,0.0,0.0,75,0.00,,,0.00,WeatherCatV1.02B3,2013-01-27 18:46:00,
2013-01-27 13:51:00,34.3,27.2,30.58,North,355,0.0,4.0,75,0.00,,,0.00,WeatherCatV1.02B3,2013-01-27 18:51:00,
2013-01-27 13:56:00,34.7,27.3,30.58,WNW,295,2.0,3.0,74,0.00,,,0.00,WeatherCatV1.02B3,2013-01-27 18:56:00,
2013-01-27 14:01:00,34.8,27.0,30.58,NW,325,0.0,1.0,73,0.00,,,0.00,WeatherCatV1.02B3,2013-01-27 19:01:00,
2013-01-27 14:06:00,34.9,26.8,30.58,NW,325,0.0,0.0,72,0.00,,,0.00,WeatherCatV1.02B3,2013-01-27 19:06:00,
2013-01-27 14:49:00,36.8,27.2,30.57,WNW,297,0.0,0.0,68,0.00,,,0.00,WeatherCatV1.02B3,2013-01-27 19:49:00,
2013-01-27 14:54:00,36.8,27.2,30.57,WNW,297,0.0,0.0,68,0.00,,,0.00,WeatherCatV1.02B3,2013-01-27 19:54:00,
2013-01-27 14:59:00,37.0,27.4,30.57,WNW,296,0.0,1.0,68,0.00,,,0.00,WeatherCatV1.02B3,2013-01-27 19:59:00,
2013-01-27 15:04:00,37.2,27.6,30.57,WNW,297,1.0,1.0,68,0.00,,,0.00,WeatherCatV1.02B3,2013-01-27 20:04:00,
2013-01-27 15:09:00,37.3,27.4,30.57,WNW,298,0.0,1.0,67,0.00,,,0.00,WeatherCatV1.02B3,2013-01-27 20:09:00,
2013-01-27 15:14:00,37.4,27.8,30.58,WNW,298,0.0,1.0,68,0.00,,,0.00,WeatherCatV1.02B3,2013-01-27 20:14:00,
2013-01-27 15:19:00,37.1,27.5,30.58,WNW,298,0.0,1.0,68,0.00,,,0.00,WeatherCatV1.02B3,2013-01-27 20:19:00,
2013-01-27 15:24:00,36.8,27.2,30.57,WNW,298,0.0,0.0,68,0.00,,,0.00,WeatherCatV1.02B3,2013-01-27 20:24:00,
2013-01-27 15:29:00,36.8,27.6,30.58,WNW,298,0.0,1.0,69,0.00,,,0.00,WeatherCatV1.02B3,2013-01-27 20:29:00,
2013-01-27 15:34:00,36.9,27.7,30.58,WNW,298,0.0,0.0,69,0.00,,,0.00,WeatherCatV1.02B3,2013-01-27 20:34:00,
2013-01-27 15:39:00,36.9,27.7,30.58,WNW,298,0.0,0.0,69,0.00,,,0.00,WeatherCatV1.02B3,2013-01-27 20:39:00,
2013-01-27 15:44:00,36.4,27.2,30.58,WNW,298,0.0,0.0,69,0.00,,,0.00,WeatherCatV1.02B3,2013-01-27 20:44:00,
2013-01-27 15:49:00,36.0,27.2,30.58,WNW,298,0.0,0.0,70,0.00,,,0.00,WeatherCatV1.02B3,2013-01-27 20:49:00,
2013-01-27 15:54:00,35.6,26.8,30.58,WNW,298,0.0,1.0,70,0.00,,,0.00,WeatherCatV1.02B3,2013-01-27 20:54:00,
2013-01-27 15:59:00,35.4,27.3,30.58,WNW,298,0.0,0.0,72,0.00,,,0.00,WeatherCatV1.02B3,2013-01-27 20:59:00,
2013-01-27 16:04:00,35.3,27.2,30.59,WNW,298,0.0,1.0,72,0.00,,,0.00,WeatherCatV1.02B3,2013-01-27 21:04:00,
2013-01-27 16:09:00,35.1,27.0,30.58,WNW,298,0.0,0.0,72,0.00,,,0.00,WeatherCatV1.02B3,2013-01-27 21:09:00,
2013-01-27 16:14:00,34.9,26.8,30.58,WNW,298,0.0,0.0,72,0.00,,,0.00,WeatherCatV1.02B3,2013-01-27 21:14:00,
2013-01-27 16:19:00,34.4,26.7,30.58,WNW,298,0.0,0.0,73,0.00,,,0.00,WeatherCatV1.02B3,2013-01-27 21:19:00,
2013-01-27 16:24:00,34.4,27.0,30.58,WNW,298,0.0,0.0,74,0.00,,,0.00,WeatherCatV1.02B3,2013-01-27 21:24:00,
2013-01-27 16:29:00,34.4,27.0,30.58,WNW,298,0.0,0.0,74,0.00,,,0.00,WeatherCatV1.02B3,2013-01-27 21:29:00,
2013-01-27 16:34:00,34.4,26.7,30.58,South,171,0.0,0.0,73,0.00,,,0.00,WeatherCatV1.02B3,2013-01-27 21:34:00,
2013-01-27 16:39:00,34.4,26.3,30.58,SW,228,2.0,3.0,72,0.00,,,0.00,WeatherCatV1.02B3,2013-01-27 21:39:00,
2013-01-27 16:44:00,34.7,26.6,30.58,South,190,0.0,1.0,72,0.00,,,0.00,WeatherCatV1.02B3,2013-01-27 21:44:00,
2013-01-27 16:47:00,34.7,27.3,30.58,South,190,0.0,0.0,74,0.00,,,0.00,WeatherCatV1.02B3,2013-01-27 21:47:00,
2013-01-27 16:52:00,34.4,26.7,30.58,South,190,0.0,0.0,73,0.00,,,0.00,WeatherCatV1.02B3,2013-01-27 21:52:00,
2013-01-27 16:57:00,34.3,26.9,30.58,South,190,0.0,0.0,74,0.00,,,0.00,WeatherCatV1.02B3,2013-01-27 21:57:00,
2013-01-27 17:02:00,33.9,26.8,30.59,South,190,0.0,0.0,75,0.00,,,0.00,WeatherCatV1.02B3,2013-01-27 22:02:00,
2013-01-27 17:07:00,33.7,27.0,30.59,South,190,0.0,0.0,76,0.00,,,0.00,WeatherCatV1.02B3,2013-01-27 22:07:00,
2013-01-27 17:12:00,33.2,26.5,30.58,South,190,0.0,0.0,76,0.00,,,0.00,WeatherCatV1.02B3,2013-01-27 22:12:00,
2013-01-27 17:17:00,33.0,26.6,30.59,South,190,0.0,0.0,77,0.00,,,0.00,WeatherCatV1.02B3,2013-01-27 22:17:00,
2013-01-27 17:22:00,32.7,26.3,30.59,South,190,0.0,0.0,77,0.00,,,0.00,WeatherCatV1.02B3,2013-01-27 22:22:00,
2013-01-27 17:27:00,32.6,26.5,30.59,South,190,0.0,0.0,78,0.00,,,0.00,WeatherCatV1.02B3,2013-01-27 22:27:00,
2013-01-27 17:32:00,32.6,26.5,30.60,South,190,0.0,0.0,78,0.00,,,0.00,WeatherCatV1.02B3,2013-01-27 22:32:00,
2013-01-27 17:37:00,32.5,26.4,30.60,South,190,0.0,0.0,78,0.00,,,0.00,WeatherCatV1.02B3,2013-01-27 22:37:00,
2013-01-27 17:42:00,32.3,26.2,30.59,South,190,0.0,0.0,78,0.00,,,0.00,WeatherCatV1.02B3,2013-01-27 22:42:00,
2013-01-27 17:47:00,32.2,26.1,30.59,South,190,0.0,0.0,78,0.00,,,0.00,WeatherCatV1.02B3,2013-01-27 22:47:00,
2013-01-27 17:52:00,32.1,26.3,30.59,South,190,0.0,0.0,79,0.00,,,0.00,WeatherCatV1.02B3,2013-01-27 22:52:00,
2013-01-27 17:57:00,31.9,26.1,30.59,South,190,0.0,3.0,79,0.00,,,0.00,WeatherCatV1.02B3,2013-01-27 22:57:00,
2013-01-27 18:02:00,31.8,26.0,30.59,South,190,0.0,0.0,79,0.00,,,0.00,WeatherCatV1.02B3,2013-01-27 23:02:00,
2013-01-27 18:07:00,31.7,26.2,30.60,South,190,0.0,0.0,80,0.00,,,0.00,WeatherCatV1.02B3,2013-01-27 23:07:00,
2013-01-27 18:12:00,31.6,26.2,30.60,South,190,0.0,0.0,80,0.00,,,0.00,WeatherCatV1.02B3,2013-01-27 23:12:00,
2013-01-27 18:17:00,31.5,26.1,30.59,South,190,0.0,0.0,80,0.00,,,0.00,WeatherCatV1.02B3,2013-01-27 23:17:00,
2013-01-27 18:22:00,31.5,26.1,30.59,South,190,0.0,0.0,80,0.00,,,0.00,WeatherCatV1.02B3,2013-01-27 23:22:00,
2013-01-27 18:27:00,31.5,25.8,30.59,South,190,0.0,0.0,79,0.00,,,0.00,WeatherCatV1.02B3,2013-01-27 23:27:00,
2013-01-27 18:32:00,31.7,26.2,30.59,South,190,0.0,0.0,80,0.00,,,0.00,WeatherCatV1.02B3,2013-01-27 23:32:00,
2013-01-27 18:37:00,31.7,26.2,30.60,South,190,0.0,0.0,80,0.00,,,0.00,WeatherCatV1.02B3,2013-01-27 23:37:00,
2013-01-27 18:42:00,31.5,25.8,30.60,South,190,0.0,0.0,79,0.00,,,0.00,WeatherCatV1.02B3,2013-01-27 23:42:00,
2013-01-27 18:47:00,31.4,26.0,30.60,South,190,0.0,0.0,80,0.00,,,0.00,WeatherCatV1.02B3,2013-01-27 23:47:00,
2013-01-27 18:52:00,31.2,25.8,30.61,South,190,0.0,0.0,80,0.00,,,0.00,WeatherCatV1.02B3,2013-01-27 23:52:00,
2013-01-27 18:57:00,31.1,25.7,30.61,South,190,0.0,0.0,80,0.00,,,0.00,WeatherCatV1.02B3,2013-01-27 23:57:00,
2013-01-27 19:02:00,31.0,25.9,30.61,South,190,0.0,0.0,81,0.00,,,0.00,WeatherCatV1.02B3,2013-01-28 00:02:00,
2013-01-27 19:07:00,31.0,25.9,30.61,South,190,0.0,1.0,81,0.00,,,0.00,WeatherCatV1.02B3,2013-01-28 00:07:00,
2013-01-27 19:12:00,30.9,25.8,30.61,South,190,0.0,0.0,81,0.00,,,0.00,WeatherCatV1.02B3,2013-01-28 00:12:00,
2013-01-27 19:18:00,30.9,26.1,30.61,South,190,0.0,0.0,82,0.00,,,0.00,WeatherCatV1.02B3,2013-01-28 00:18:00,
2013-01-27 19:23:00,30.8,25.7,30.60,South,190,0.0,0.0,81,0.00,,,0.00,WeatherCatV1.02B3,2013-01-28 00:23:00,
2013-01-27 19:28:00,30.7,25.6,30.61,South,190,0.0,1.0,81,0.00,,,0.00,WeatherCatV1.02B3,2013-01-28 00:28:00,
2013-01-27 19:33:00,30.7,25.6,30.60,South,190,0.0,0.0,81,0.00,,,0.00,WeatherCatV1.02B3,2013-01-28 00:33:00,
2013-01-27 19:38:00,30.7,25.6,30.61,South,190,0.0,1.0,81,0.00,,,0.00,WeatherCatV1.02B3,2013-01-28 00:38:00,
2013-01-27 19:43:00,30.7,25.9,30.61,South,190,0.0,0.0,82,0.00,,,0.00,WeatherCatV1.02B3,2013-01-28 00:43:00,
2013-01-27 19:48:00,30.7,25.9,30.61,South,190,0.0,0.0,82,0.00,,,0.00,WeatherCatV1.02B3,2013-01-28 00:48:00,
2013-01-27 19:53:00,30.7,26.2,30.61,South,190,0.0,0.0,83,0.00,,,0.00,WeatherCatV1.02B3,2013-01-28 00:53:00,
2013-01-27 19:58:00,30.8,26.5,30.61,South,190,0.0,1.0,84,0.00,,,0.00,WeatherCatV1.02B3,2013-01-28 00:58:00,
2013-01-27 20:03:00,31.1,26.6,30.60,South,190,0.0,0.0,83,0.00,,,0.00,WeatherCatV1.02B3,2013-01-28 01:03:00,
2013-01-27 20:08:00,31.3,26.7,30.60,South,190,0.0,1.0,83,0.00,,,0.00,WeatherCatV1.02B3,2013-01-28 01:08:00,
2013-01-27 20:13:00,31.5,26.9,30.60,South,190,0.0,2.0,83,0.00,,,0.00,WeatherCatV1.02B3,2013-01-28 01:13:00,
2013-01-27 20:18:00,31.5,26.9,30.61,South,190,0.0,0.0,83,0.00,,,0.00,WeatherCatV1.02B3,2013-01-28 01:18:00,
2013-01-27 20:23:00,31.6,27.0,30.60,South,190,0.0,1.0,83,0.00,,,0.00,WeatherCatV1.02B3,2013-01-28 01:23:00,
2013-01-27 20:28:00,31.7,27.1,30.61,South,190,0.0,1.0,83,0.00,,,0.00,WeatherCatV1.02B3,2013-01-28 01:28:00,
2013-01-27 20:33:00,31.7,27.1,30.62,South,190,0.0,0.0,83,0.00,,,0.00,WeatherCatV1.02B3,2013-01-28 01:33:00,
2013-01-27 20:38:00,31.8,26.9,30.61,South,190,0.0,1.0,82,0.00,,,0.00,WeatherCatV1.02B3,2013-01-28 01:38:00,
2013-01-27 20:43:00,31.9,27.0,30.61,South,190,0.0,0.0,82,0.00,,,0.00,WeatherCatV1.02B3,2013-01-28 01:43:00,
2013-01-27 20:48:00,31.9,27.3,30.61,South,190,0.0,0.0,83,0.00,,,0.00,WeatherCatV1.02B3,2013-01-28 01:48:00,
2013-01-27 20:53:00,31.9,27.0,30.60,NNW,341,0.0,2.0,82,0.00,,,0.00,WeatherCatV1.02B3,2013-01-28 01:53:00,
2013-01-27 20:58:00,31.9,27.0,30.61,NNW,346,0.0,3.0,82,0.00,,,0.00,WeatherCatV1.02B3,2013-01-28 01:58:00,
2013-01-27 21:03:00,31.8,26.9,30.61,North,355,0.0,0.0,82,0.00,,,0.00,WeatherCatV1.02B3,2013-01-28 02:03:00,
2013-01-27 21:08:00,31.7,26.8,30.61,North,355,0.0,0.0,82,0.00,,,0.00,WeatherCatV1.02B3,2013-01-28 02:08:00,
2013-01-27 21:13:00,31.7,26.8,30.61,North,355,0.0,0.0,82,0.00,,,0.00,WeatherCatV1.02B3,2013-01-28 02:13:00,
2013-01-27 21:18:00,31.8,26.9,30.61,North,355,0.0,0.0,82,0.00,,,0.00,WeatherCatV1.02B3,2013-01-28 02:18:00,
2013-01-27 21:23:00,31.8,26.9,30.61,South,182,0.0,1.0,82,0.00,,,0.00,WeatherCatV1.02B3,2013-01-28 02:23:00,
2013-01-27 21:28:00,31.8,26.9,30.60,NW,323,1.0,2.0,82,0.00,,,0.00,WeatherCatV1.02B3,2013-01-28 02:28:00,
2013-01-27 21:33:00,31.9,27.3,30.60,West,263,0.0,0.0,83,0.00,,,0.00,WeatherCatV1.02B3,2013-01-28 02:33:00,
2013-01-27 21:38:00,32.0,27.4,30.60,NE,53,0.0,4.0,83,0.00,,,0.00,WeatherCatV1.02B3,2013-01-28 02:38:00,
2013-01-27 21:43:00,32.2,27.6,30.59,SSE,161,1.0,2.0,83,0.00,,,0.00,WeatherCatV1.02B3,2013-01-28 02:43:00,
2013-01-27 21:48:00,32.4,27.8,30.59,SE,136,0.0,1.0,83,0.00,,,0.00,WeatherCatV1.02B3,2013-01-28 02:48:00,
2013-01-27 21:53:00,32.5,27.9,30.59,SE,127,0.0,0.0,83,0.00,,,0.00,WeatherCatV1.02B3,2013-01-28 02:53:00,
2013-01-27 21:58:00,32.5,27.9,30.59,ENE,60,0.0,2.0,83,0.00,,,0.00,WeatherCatV1.02B3,2013-01-28 02:58:00,
2013-01-27 22:03:00,32.5,27.9,30.59,ENE,61,0.0,1.0,83,0.00,,,0.00,WeatherCatV1.02B3,2013-01-28 03:03:00,
2013-01-27 22:08:00,32.5,27.9,30.60,ENE,61,0.0,0.0,83,0.00,,,0.00,WeatherCatV1.02B3,2013-01-28 03:08:00,
2013-01-27 22:13:00,32.5,27.9,30.60,East,94,0.0,0.0,83,0.00,,,0.00,WeatherCatV1.02B3,2013-01-28 03:13:00,
2013-01-27 22:18:00,32.4,27.8,30.61,East,94,0.0,0.0,83,0.00,,,0.00,WeatherCatV1.02B3,2013-01-28 03:18:00,
2013-01-27 22:23:00,32.4,27.8,30.60,East,96,0.0,1.0,83,0.00,,,0.00,WeatherCatV1.02B3,2013-01-28 03:23:00,
2013-01-27 22:28:00,32.3,27.7,30.60,ESE,122,0.0,1.0,83,0.00,,,0.00,WeatherCatV1.02B3,2013-01-28 03:28:00,
2013-01-27 22:33:00,32.3,28.0,30.59,ESE,122,0.0,1.0,84,0.00,,,0.00,WeatherCatV1.02B3,2013-01-28 03:33:00,
2013-01-27 22:38:00,32.3,27.7,30.59,NNW,340,0.0,2.0,83,0.00,,,0.00,WeatherCatV1.02B3,2013-01-28 03:38:00,
2013-01-27 22:43:00,32.3,28.0,30.59,WNW,283,2.0,3.0,84,0.00,,,0.00,WeatherCatV1.02B3,2013-01-28 03:43:00,
2013-01-27 22:48:00,32.3,28.6,30.60,WNW,286,0.0,0.0,86,0.00,,,0.01,WeatherCatV1.02B3,2013-01-28 03:48:00,
2013-01-27 22:53:00,32.2,28.8,30.59,WNW,286,0.0,2.0,87,0.00,,,0.01,WeatherCatV1.02B3,2013-01-28 03:53:00,
2013-01-27 22:58:00,32.1,29.0,30.59,South,191,0.0,1.0,88,0.05,,,0.02,WeatherCatV1.02B3,2013-01-28 03:58:00,
2013-01-27 23:03:00,32.0,29.1,30.59,South,183,0.0,0.0,89,0.05,,,0.02,WeatherCatV1.02B3,2013-01-28 04:03:00,
2013-01-27 23:08:00,31.9,29.3,30.59,North,355,1.0,1.0,90,0.05,,,0.02,WeatherCatV1.02B3,2013-01-28 04:08:00,
2013-01-27 23:13:00,31.8,29.5,30.59,North,351,0.0,0.0,91,0.04,,,0.03,WeatherCatV1.02B3,2013-01-28 04:13:00,
2013-01-27 23:18:00,31.7,29.4,30.58,NE,44,1.0,1.0,91,0.04,,,0.03,WeatherCatV1.02B3,2013-01-28 04:18:00,
2013-01-27 23:23:00,31.6,29.5,30.58,SE,142,0.0,2.0,92,0.06,,,0.04,WeatherCatV1.02B3,2013-01-28 04:23:00,
2013-01-27 23:28:00,31.6,29.5,30.58,WNW,300,2.0,2.0,92,0.06,,,0.04,WeatherCatV1.02B3,2013-01-28 04:28:00,
2013-01-27 23:33:00,31.6,29.5,30.57,NNW,343,0.0,1.0,92,0.07,,,0.05,WeatherCatV1.02B3,2013-01-28 04:33:00,
2013-01-27 23:38:00,31.4,29.4,30.58,NNW,348,0.0,0.0,92,0.07,,,0.05,WeatherCatV1.02B3,2013-01-28 04:38:00,
2013-01-27 23:43:00,31.3,29.5,30.57,NNW,348,0.0,0.0,93,0.07,,,0.06,WeatherCatV1.02B3,2013-01-28 04:43:00,
2013-01-27 23:48:00,31.3,29.5,30.58,NNW,348,0.0,0.0,93,0.07,,,0.06,WeatherCatV1.02B3,2013-01-28 04:48:00,
2013-01-27 23:53:00,31.4,29.9,30.57,SW,222,0.0,0.0,94,0.05,,,0.06,WeatherCatV1.02B3,2013-01-28 04:53:00,
2013-01-27 23:58:00,31.6,30.1,30.57,SSW,209,0.0,0.0,94,0.04,,,0.07,WeatherCatV1.02B3,2013-01-28 04:58:00,